sensor_id;sensor_type;location;lat;lon;timestamp;temperature;humidity
26703;DHT22;14316;51.074;3.704;2023-06-26T00:00:00;21.20;99.90
26703;DHT22;14316;51.074;3.704;2023-06-26T00:02:26;21.20;99.90
26703;DHT22;14316;51.074;3.704;2023-06-26T00:04:51;21.10;99.90
26703;DHT22;14316;51.074;3.704;2023-06-26T00:07:20;21.10;99.90
26703;DHT22;14316;51.074;3.704;2023-06-26T00:09:46;21.20;99.90
26703;DHT22;14316;51.074;3.704;2023-06-26T00:12:13;21.10;99.90
26703;DHT22;14316;51.074;3.704;2023-06-26T00:14:38;20.90;99.90
26703;DHT22;14316;51.074;3.704;2023-06-26T00:17:04;20.80;99.90
26703;DHT22;14316;51.074;3.704;2023-06-26T00:19:30;20.70;99.90
26703;DHT22;14316;51.074;3.704;2023-06-26T00:21:56;20.60;99.90
26703;DHT22;14316;51.074;3.704;2023-06-26T00:24:23;20.60;99.90
26703;DHT22;14316;51.074;3.704;2023-06-26T00:26:49;20.60;99.90
26703;DHT22;14316;51.074;3.704;2023-06-26T00:29:15;20.50;99.90
26703;DHT22;14316;51.074;3.704;2023-06-26T00:31:41;20.40;99.90
26703;DHT22;14316;51.074;3.704;2023-06-26T00:34:07;20.50;99.90
26703;DHT22;14316;51.074;3.704;2023-06-26T00:36:34;20.50;99.90
26703;DHT22;14316;51.074;3.704;2023-06-26T00:39:00;20.50;99.90
26703;DHT22;14316;51.074;3.704;2023-06-26T00:41:26;20.50;99.90
26703;DHT22;14316;51.074;3.704;2023-06-26T00:43:51;20.60;99.90
26703;DHT22;14316;51.074;3.704;2023-06-26T00:46:17;20.60;99.90
26703;DHT22;14316;51.074;3.704;2023-06-26T00:48:46;20.60;99.90
26703;DHT22;14316;51.074;3.704;2023-06-26T00:51:12;20.50;99.90
26703;DHT22;14316;51.074;3.704;2023-06-26T00:53:38;20.50;99.90
26703;DHT22;14316;51.074;3.704;2023-06-26T00:56:05;20.50;99.90
26703;DHT22;14316;51.074;3.704;2023-06-26T00:58:31;20.50;99.90
26703;DHT22;14316;51.074;3.704;2023-06-26T01:00:58;20.50;99.90
26703;DHT22;14316;51.074;3.704;2023-06-26T01:03:25;20.60;99.90
26703;DHT22;14316;51.074;3.704;2023-06-26T01:05:56;20.50;99.90
26703;DHT22;14316;51.074;3.704;2023-06-26T01:08:24;20.50;99.90
26703;DHT22;14316;51.074;3.704;2023-06-26T01:10:50;20.50;99.90
26703;DHT22;14316;51.074;3.704;2023-06-26T01:13:18;20.40;99.90
26703;DHT22;14316;51.074;3.704;2023-06-26T01:15:44;20.40;99.90
26703;DHT22;14316;51.074;3.704;2023-06-26T01:18:11;20.40;99.90
26703;DHT22;14316;51.074;3.704;2023-06-26T01:20:38;20.40;99.90
26703;DHT22;14316;51.074;3.704;2023-06-26T01:23:20;20.30;99.90
26703;DHT22;14316;51.074;3.704;2023-06-26T01:28:40;20.20;99.90
26703;DHT22;14316;51.074;3.704;2023-06-26T01:31:07;20.10;99.90
26703;DHT22;14316;51.074;3.704;2023-06-26T01:33:34;20.00;99.90
26703;DHT22;14316;51.074;3.704;2023-06-26T01:36:01;20.00;99.90
26703;DHT22;14316;51.074;3.704;2023-06-26T01:38:27;19.90;99.90
26703;DHT22;14316;51.074;3.704;2023-06-26T01:40:54;19.90;99.90
26703;DHT22;14316;51.074;3.704;2023-06-26T01:49:03;19.70;99.90
26703;DHT22;14316;51.074;3.704;2023-06-26T01:51:41;19.70;99.90
26703;DHT22;14316;51.074;3.704;2023-06-26T01:54:12;19.70;99.90
26703;DHT22;14316;51.074;3.704;2023-06-26T01:56:40;19.60;99.90
26703;DHT22;14316;51.074;3.704;2023-06-26T01:59:07;19.50;99.90
26703;DHT22;14316;51.074;3.704;2023-06-26T02:01:35;19.50;99.90
26703;DHT22;14316;51.074;3.704;2023-06-26T02:04:01;19.50;99.90
26703;DHT22;14316;51.074;3.704;2023-06-26T02:06:27;19.40;99.90
26703;DHT22;14316;51.074;3.704;2023-06-26T02:08:53;19.30;99.90
26703;DHT22;14316;51.074;3.704;2023-06-26T02:11:22;19.40;99.90
26703;DHT22;14316;51.074;3.704;2023-06-26T02:13:49;19.30;99.90
26703;DHT22;14316;51.074;3.704;2023-06-26T02:16:15;19.20;99.90
26703;DHT22;14316;51.074;3.704;2023-06-26T02:18:40;19.10;99.90
26703;DHT22;14316;51.074;3.704;2023-06-26T02:21:09;19.10;99.90
26703;DHT22;14316;51.074;3.704;2023-06-26T02:23:35;19.00;99.90
26703;DHT22;14316;51.074;3.704;2023-06-26T02:26:01;19.00;99.90
26703;DHT22;14316;51.074;3.704;2023-06-26T02:28:27;18.90;99.90
26703;DHT22;14316;51.074;3.704;2023-06-26T02:30:53;18.90;99.90
26703;DHT22;14316;51.074;3.704;2023-06-26T02:33:19;18.90;99.90
26703;DHT22;14316;51.074;3.704;2023-06-26T02:35:45;18.90;99.90
26703;DHT22;14316;51.074;3.704;2023-06-26T02:38:11;18.90;99.90
26703;DHT22;14316;51.074;3.704;2023-06-26T02:40:38;18.70;99.90
26703;DHT22;14316;51.074;3.704;2023-06-26T02:43:04;18.70;99.90
26703;DHT22;14316;51.074;3.704;2023-06-26T02:45:30;18.70;99.90
26703;DHT22;14316;51.074;3.704;2023-06-26T02:47:56;18.60;99.90
26703;DHT22;14316;51.074;3.704;2023-06-26T02:50:22;18.60;99.90
26703;DHT22;14316;51.074;3.704;2023-06-26T02:52:48;18.50;99.90
26703;DHT22;14316;51.074;3.704;2023-06-26T02:55:18;18.50;99.90
26703;DHT22;14316;51.074;3.704;2023-06-26T02:57:45;18.50;99.90
26703;DHT22;14316;51.074;3.704;2023-06-26T03:00:11;18.50;99.90
26703;DHT22;14316;51.074;3.704;2023-06-26T03:02:39;18.50;99.90
26703;DHT22;14316;51.074;3.704;2023-06-26T03:05:05;18.40;99.90
26703;DHT22;14316;51.074;3.704;2023-06-26T03:07:31;18.30;99.90
26703;DHT22;14316;51.074;3.704;2023-06-26T03:09:56;18.30;99.90
26703;DHT22;14316;51.074;3.704;2023-06-26T03:12:22;18.20;99.90
26703;DHT22;14316;51.074;3.704;2023-06-26T03:14:49;18.20;99.90
26703;DHT22;14316;51.074;3.704;2023-06-26T03:17:15;18.10;99.90
26703;DHT22;14316;51.074;3.704;2023-06-26T03:19:41;18.10;99.90
26703;DHT22;14316;51.074;3.704;2023-06-26T03:22:07;18.10;99.90
26703;DHT22;14316;51.074;3.704;2023-06-26T03:24:33;18.00;99.90
26703;DHT22;14316;51.074;3.704;2023-06-26T03:26:59;17.90;99.90
26703;DHT22;14316;51.074;3.704;2023-06-26T03:29:25;17.90;99.90
26703;DHT22;14316;51.074;3.704;2023-06-26T03:31:51;17.80;99.90
26703;DHT22;14316;51.074;3.704;2023-06-26T03:34:17;17.80;99.90
26703;DHT22;14316;51.074;3.704;2023-06-26T03:36:43;17.80;99.90
26703;DHT22;14316;51.074;3.704;2023-06-26T03:39:09;17.70;99.90
26703;DHT22;14316;51.074;3.704;2023-06-26T03:41:35;17.60;99.90
26703;DHT22;14316;51.074;3.704;2023-06-26T03:44:01;17.60;99.90
26703;DHT22;14316;51.074;3.704;2023-06-26T03:46:28;17.60;99.90
26703;DHT22;14316;51.074;3.704;2023-06-26T03:48:54;17.60;99.90
26703;DHT22;14316;51.074;3.704;2023-06-26T03:51:21;17.60;99.90
26703;DHT22;14316;51.074;3.704;2023-06-26T03:53:47;17.60;99.90
26703;DHT22;14316;51.074;3.704;2023-06-26T03:56:12;17.60;99.90
26703;DHT22;14316;51.074;3.704;2023-06-26T03:58:39;17.60;99.90
26703;DHT22;14316;51.074;3.704;2023-06-26T04:01:05;17.50;99.90
26703;DHT22;14316;51.074;3.704;2023-06-26T04:03:33;17.50;99.90
26703;DHT22;14316;51.074;3.704;2023-06-26T04:05:59;17.40;99.90
26703;DHT22;14316;51.074;3.704;2023-06-26T04:08:25;17.50;99.90
26703;DHT22;14316;51.074;3.704;2023-06-26T04:10:53;17.50;99.90
26703;DHT22;14316;51.074;3.704;2023-06-26T04:13:20;17.50;99.90
26703;DHT22;14316;51.074;3.704;2023-06-26T04:15:47;17.40;99.90
26703;DHT22;14316;51.074;3.704;2023-06-26T04:18:13;17.40;99.90
26703;DHT22;14316;51.074;3.704;2023-06-26T04:20:41;17.30;99.90
26703;DHT22;14316;51.074;3.704;2023-06-26T04:23:07;17.30;99.90
26703;DHT22;14316;51.074;3.704;2023-06-26T04:25:33;17.30;99.90
26703;DHT22;14316;51.074;3.704;2023-06-26T04:27:59;17.30;99.90
26703;DHT22;14316;51.074;3.704;2023-06-26T04:30:25;17.30;99.90
26703;DHT22;14316;51.074;3.704;2023-06-26T04:32:51;17.30;99.90
26703;DHT22;14316;51.074;3.704;2023-06-26T04:35:16;17.40;99.90
26703;DHT22;14316;51.074;3.704;2023-06-26T04:37:42;17.40;99.90
26703;DHT22;14316;51.074;3.704;2023-06-26T04:40:09;17.40;99.90
26703;DHT22;14316;51.074;3.704;2023-06-26T04:42:36;17.50;99.90
26703;DHT22;14316;51.074;3.704;2023-06-26T04:45:02;17.40;99.90
26703;DHT22;14316;51.074;3.704;2023-06-26T04:47:28;17.40;99.90
26703;DHT22;14316;51.074;3.704;2023-06-26T04:49:54;17.40;99.90
26703;DHT22;14316;51.074;3.704;2023-06-26T04:52:21;17.50;99.90
26703;DHT22;14316;51.074;3.704;2023-06-26T04:54:47;17.50;99.90
26703;DHT22;14316;51.074;3.704;2023-06-26T04:57:13;17.60;99.90
26703;DHT22;14316;51.074;3.704;2023-06-26T04:59:40;17.60;99.90
26703;DHT22;14316;51.074;3.704;2023-06-26T05:02:06;17.70;99.90
26703;DHT22;14316;51.074;3.704;2023-06-26T05:04:32;17.80;99.90
26703;DHT22;14316;51.074;3.704;2023-06-26T05:06:58;17.90;99.90
26703;DHT22;14316;51.074;3.704;2023-06-26T05:09:24;17.90;99.90
26703;DHT22;14316;51.074;3.704;2023-06-26T05:11:50;17.90;99.90
26703;DHT22;14316;51.074;3.704;2023-06-26T05:14:16;17.90;99.90
26703;DHT22;14316;51.074;3.704;2023-06-26T05:16:43;18.00;99.90
26703;DHT22;14316;51.074;3.704;2023-06-26T05:19:09;18.00;99.90
26703;DHT22;14316;51.074;3.704;2023-06-26T05:21:35;18.10;99.90
26703;DHT22;14316;51.074;3.704;2023-06-26T05:24:02;18.20;99.90
26703;DHT22;14316;51.074;3.704;2023-06-26T05:26:29;18.30;99.90
26703;DHT22;14316;51.074;3.704;2023-06-26T05:28:56;18.30;99.90
26703;DHT22;14316;51.074;3.704;2023-06-26T05:31:22;18.20;99.90
26703;DHT22;14316;51.074;3.704;2023-06-26T05:33:49;18.30;99.90
26703;DHT22;14316;51.074;3.704;2023-06-26T05:36:16;18.30;99.90
26703;DHT22;14316;51.074;3.704;2023-06-26T05:38:44;18.30;99.90
26703;DHT22;14316;51.074;3.704;2023-06-26T05:41:11;18.40;99.90
26703;DHT22;14316;51.074;3.704;2023-06-26T05:43:37;18.50;99.90
26703;DHT22;14316;51.074;3.704;2023-06-26T05:46:03;18.60;99.90
26703;DHT22;14316;51.074;3.704;2023-06-26T05:48:29;18.70;99.90
26703;DHT22;14316;51.074;3.704;2023-06-26T05:50:55;18.70;99.90
26703;DHT22;14316;51.074;3.704;2023-06-26T05:53:22;18.90;99.90
26703;DHT22;14316;51.074;3.704;2023-06-26T05:55:48;19.00;99.90
26703;DHT22;14316;51.074;3.704;2023-06-26T05:58:14;19.20;99.90
26703;DHT22;14316;51.074;3.704;2023-06-26T06:00:41;19.20;99.90
26703;DHT22;14316;51.074;3.704;2023-06-26T06:03:09;19.30;99.90
26703;DHT22;14316;51.074;3.704;2023-06-26T06:05:36;19.40;99.90
26703;DHT22;14316;51.074;3.704;2023-06-26T06:08:03;19.40;99.90
26703;DHT22;14316;51.074;3.704;2023-06-26T06:10:29;19.40;99.90
26703;DHT22;14316;51.074;3.704;2023-06-26T06:12:54;19.50;99.90
26703;DHT22;14316;51.074;3.704;2023-06-26T06:15:20;19.50;99.90
26703;DHT22;14316;51.074;3.704;2023-06-26T06:17:46;19.40;99.90
26703;DHT22;14316;51.074;3.704;2023-06-26T06:20:12;19.30;99.90
26703;DHT22;14316;51.074;3.704;2023-06-26T06:22:38;19.40;99.90
26703;DHT22;14316;51.074;3.704;2023-06-26T06:25:04;19.40;99.90
26703;DHT22;14316;51.074;3.704;2023-06-26T06:27:30;19.70;99.90
26703;DHT22;14316;51.074;3.704;2023-06-26T06:29:57;19.80;99.90
26703;DHT22;14316;51.074;3.704;2023-06-26T06:32:23;19.70;99.90
26703;DHT22;14316;51.074;3.704;2023-06-26T06:34:49;19.80;99.90
26703;DHT22;14316;51.074;3.704;2023-06-26T06:37:14;19.80;99.90
26703;DHT22;14316;51.074;3.704;2023-06-26T06:39:40;19.90;99.90
26703;DHT22;14316;51.074;3.704;2023-06-26T06:42:07;19.90;99.90
26703;DHT22;14316;51.074;3.704;2023-06-26T06:44:33;20.00;99.90
26703;DHT22;14316;51.074;3.704;2023-06-26T06:46:59;20.10;99.90
26703;DHT22;14316;51.074;3.704;2023-06-26T06:49:25;20.20;99.90
26703;DHT22;14316;51.074;3.704;2023-06-26T06:51:51;20.40;99.90
26703;DHT22;14316;51.074;3.704;2023-06-26T06:54:17;20.50;99.90
26703;DHT22;14316;51.074;3.704;2023-06-26T06:56:45;20.40;99.90
26703;DHT22;14316;51.074;3.704;2023-06-26T06:59:11;20.20;99.90
26703;DHT22;14316;51.074;3.704;2023-06-26T07:01:37;20.20;99.90
26703;DHT22;14316;51.074;3.704;2023-06-26T07:04:03;20.20;99.90
26703;DHT22;14316;51.074;3.704;2023-06-26T07:06:30;20.30;99.90
26703;DHT22;14316;51.074;3.704;2023-06-26T07:08:56;20.40;99.90
26703;DHT22;14316;51.074;3.704;2023-06-26T07:11:21;20.50;99.90
26703;DHT22;14316;51.074;3.704;2023-06-26T07:13:47;20.40;99.90
26703;DHT22;14316;51.074;3.704;2023-06-26T07:16:13;20.40;99.90
26703;DHT22;14316;51.074;3.704;2023-06-26T07:18:40;20.50;99.90
26703;DHT22;14316;51.074;3.704;2023-06-26T07:21:07;20.40;99.90
26703;DHT22;14316;51.074;3.704;2023-06-26T07:23:32;20.40;99.90
26703;DHT22;14316;51.074;3.704;2023-06-26T07:25:58;20.50;99.90
26703;DHT22;14316;51.074;3.704;2023-06-26T07:28:24;20.50;99.90
26703;DHT22;14316;51.074;3.704;2023-06-26T07:30:51;20.60;99.90
26703;DHT22;14316;51.074;3.704;2023-06-26T07:33:17;20.60;99.90
26703;DHT22;14316;51.074;3.704;2023-06-26T07:35:44;20.80;99.90
26703;DHT22;14316;51.074;3.704;2023-06-26T07:38:09;20.80;99.90
26703;DHT22;14316;51.074;3.704;2023-06-26T07:40:35;20.90;99.90
26703;DHT22;14316;51.074;3.704;2023-06-26T07:43:01;20.90;99.90
26703;DHT22;14316;51.074;3.704;2023-06-26T07:45:27;20.80;99.90
26703;DHT22;14316;51.074;3.704;2023-06-26T07:47:53;20.90;99.90
26703;DHT22;14316;51.074;3.704;2023-06-26T07:50:19;20.80;99.90
26703;DHT22;14316;51.074;3.704;2023-06-26T07:52:48;20.70;99.90
26703;DHT22;14316;51.074;3.704;2023-06-26T07:55:20;21.00;99.90
26703;DHT22;14316;51.074;3.704;2023-06-26T07:57:46;21.20;99.90
26703;DHT22;14316;51.074;3.704;2023-06-26T08:00:11;21.50;99.90
26703;DHT22;14316;51.074;3.704;2023-06-26T08:02:37;21.70;99.90
26703;DHT22;14316;51.074;3.704;2023-06-26T08:05:03;21.90;99.90
26703;DHT22;14316;51.074;3.704;2023-06-26T08:07:29;21.60;99.90
26703;DHT22;14316;51.074;3.704;2023-06-26T08:09:55;21.40;99.90
26703;DHT22;14316;51.074;3.704;2023-06-26T08:12:20;21.40;99.90
26703;DHT22;14316;51.074;3.704;2023-06-26T08:14:46;21.40;99.90
26703;DHT22;14316;51.074;3.704;2023-06-26T08:17:12;21.20;99.90
26703;DHT22;14316;51.074;3.704;2023-06-26T08:19:38;21.40;99.90
26703;DHT22;14316;51.074;3.704;2023-06-26T08:22:05;21.60;99.90
26703;DHT22;14316;51.074;3.704;2023-06-26T08:24:30;21.60;99.90
26703;DHT22;14316;51.074;3.704;2023-06-26T08:26:56;21.50;99.90
26703;DHT22;14316;51.074;3.704;2023-06-26T08:29:21;21.60;99.90
26703;DHT22;14316;51.074;3.704;2023-06-26T08:31:48;21.80;99.90
26703;DHT22;14316;51.074;3.704;2023-06-26T08:34:13;21.80;99.90
26703;DHT22;14316;51.074;3.704;2023-06-26T08:36:39;21.70;99.90
26703;DHT22;14316;51.074;3.704;2023-06-26T08:39:05;21.70;99.90
26703;DHT22;14316;51.074;3.704;2023-06-26T08:41:31;21.60;99.90
26703;DHT22;14316;51.074;3.704;2023-06-26T08:43:57;21.70;99.90
26703;DHT22;14316;51.074;3.704;2023-06-26T08:46:23;21.70;99.90
26703;DHT22;14316;51.074;3.704;2023-06-26T08:48:56;21.80;99.90
26703;DHT22;14316;51.074;3.704;2023-06-26T08:51:24;21.80;99.90
26703;DHT22;14316;51.074;3.704;2023-06-26T08:54:01;21.70;99.90
26703;DHT22;14316;51.074;3.704;2023-06-26T08:56:32;21.50;99.90
26703;DHT22;14316;51.074;3.704;2023-06-26T08:58:58;21.60;99.90
26703;DHT22;14316;51.074;3.704;2023-06-26T09:01:25;21.80;99.90
26703;DHT22;14316;51.074;3.704;2023-06-26T09:03:51;21.80;99.90
26703;DHT22;14316;51.074;3.704;2023-06-26T09:06:17;22.20;99.90
26703;DHT22;14316;51.074;3.704;2023-06-26T09:08:44;22.30;99.90
26703;DHT22;14316;51.074;3.704;2023-06-26T09:11:10;22.30;99.90
26703;DHT22;14316;51.074;3.704;2023-06-26T09:13:36;22.20;99.90
26703;DHT22;14316;51.074;3.704;2023-06-26T09:16:09;22.30;99.90
26703;DHT22;14316;51.074;3.704;2023-06-26T09:18:35;22.40;99.90
26703;DHT22;14316;51.074;3.704;2023-06-26T09:21:06;22.30;99.90
26703;DHT22;14316;51.074;3.704;2023-06-26T09:23:34;22.30;99.90
26703;DHT22;14316;51.074;3.704;2023-06-26T09:26:03;22.50;99.90
26703;DHT22;14316;51.074;3.704;2023-06-26T09:28:30;22.90;99.90
26703;DHT22;14316;51.074;3.704;2023-06-26T09:31:01;23.00;99.90
26703;DHT22;14316;51.074;3.704;2023-06-26T09:33:27;22.90;99.90
26703;DHT22;14316;51.074;3.704;2023-06-26T09:35:53;22.50;99.90
26703;DHT22;14316;51.074;3.704;2023-06-26T09:38:18;22.50;99.90
26703;DHT22;14316;51.074;3.704;2023-06-26T09:40:46;22.70;99.90
26703;DHT22;14316;51.074;3.704;2023-06-26T09:43:13;23.00;99.90
26703;DHT22;14316;51.074;3.704;2023-06-26T09:45:39;23.50;99.90
26703;DHT22;14316;51.074;3.704;2023-06-26T09:48:06;23.70;99.90
26703;DHT22;14316;51.074;3.704;2023-06-26T09:50:37;23.30;99.90
26703;DHT22;14316;51.074;3.704;2023-06-26T09:53:11;23.40;99.90
26703;DHT22;14316;51.074;3.704;2023-06-26T09:55:39;23.70;99.90
26703;DHT22;14316;51.074;3.704;2023-06-26T09:58:11;23.80;99.90
26703;DHT22;14316;51.074;3.704;2023-06-26T10:00:41;23.80;99.90
26703;DHT22;14316;51.074;3.704;2023-06-26T10:03:08;23.90;99.90
26703;DHT22;14316;51.074;3.704;2023-06-26T10:05:34;24.00;99.90
26703;DHT22;14316;51.074;3.704;2023-06-26T10:08:01;24.20;99.90
26703;DHT22;14316;51.074;3.704;2023-06-26T10:10:28;24.50;99.90
26703;DHT22;14316;51.074;3.704;2023-06-26T10:12:59;24.70;99.90
26703;DHT22;14316;51.074;3.704;2023-06-26T10:15:27;24.90;99.90
26703;DHT22;14316;51.074;3.704;2023-06-26T10:17:56;24.50;99.90
26703;DHT22;14316;51.074;3.704;2023-06-26T10:20:22;24.40;99.90
26703;DHT22;14316;51.074;3.704;2023-06-26T10:22:49;24.10;99.90
26703;DHT22;14316;51.074;3.704;2023-06-26T10:25:19;23.70;99.90
26703;DHT22;14316;51.074;3.704;2023-06-26T10:27:49;23.80;99.90
26703;DHT22;14316;51.074;3.704;2023-06-26T10:30:19;24.00;99.90
26703;DHT22;14316;51.074;3.704;2023-06-26T10:32:47;24.30;99.90
26703;DHT22;14316;51.074;3.704;2023-06-26T10:35:13;24.20;99.90
26703;DHT22;14316;51.074;3.704;2023-06-26T10:37:48;24.60;99.90
26703;DHT22;14316;51.074;3.704;2023-06-26T10:40:17;24.90;99.90
26703;DHT22;14316;51.074;3.704;2023-06-26T10:42:46;25.40;99.90
26703;DHT22;14316;51.074;3.704;2023-06-26T10:45:19;26.20;99.90
26703;DHT22;14316;51.074;3.704;2023-06-26T10:47:47;26.20;97.20
26703;DHT22;14316;51.074;3.704;2023-06-26T10:52:54;26.40;96.90
26703;DHT22;14316;51.074;3.704;2023-06-26T10:55:32;26.30;96.40
26703;DHT22;14316;51.074;3.704;2023-06-26T10:57:57;26.30;95.90
26703;DHT22;14316;51.074;3.704;2023-06-26T11:00:24;26.20;94.90
26703;DHT22;14316;51.074;3.704;2023-06-26T11:02:53;25.40;96.00
26703;DHT22;14316;51.074;3.704;2023-06-26T11:05:29;25.20;93.90
26703;DHT22;14316;51.074;3.704;2023-06-26T11:08:10;25.10;95.50
26703;DHT22;14316;51.074;3.704;2023-06-26T11:11:00;25.10;94.40
26703;DHT22;14316;51.074;3.704;2023-06-26T11:13:26;24.80;92.90
26703;DHT22;14316;51.074;3.704;2023-06-26T11:15:53;24.70;95.00
26703;DHT22;14316;51.074;3.704;2023-06-26T11:18:22;25.00;94.60
26703;DHT22;14316;51.074;3.704;2023-06-26T11:20:49;24.90;94.20
26703;DHT22;14316;51.074;3.704;2023-06-26T11:23:22;25.00;93.80
26703;DHT22;14316;51.074;3.704;2023-06-26T11:25:50;25.40;92.70
26703;DHT22;14316;51.074;3.704;2023-06-26T11:28:16;25.90;91.70
26703;DHT22;14316;51.074;3.704;2023-06-26T11:30:41;26.80;88.40
26703;DHT22;14316;51.074;3.704;2023-06-26T11:33:09;27.20;91.80
26703;DHT22;14316;51.074;3.704;2023-06-26T11:35:35;27.50;86.90
26703;DHT22;14316;51.074;3.704;2023-06-26T11:38:02;27.90;88.50
26703;DHT22;14316;51.074;3.704;2023-06-26T11:40:34;27.90;86.00
26703;DHT22;14316;51.074;3.704;2023-06-26T11:43:02;28.10;86.50
26703;DHT22;14316;51.074;3.704;2023-06-26T11:45:29;29.00;84.20
26703;DHT22;14316;51.074;3.704;2023-06-26T11:48:00;30.10;86.80
26703;DHT22;14316;51.074;3.704;2023-06-26T11:50:26;30.30;77.20
26703;DHT22;14316;51.074;3.704;2023-06-26T11:52:56;29.70;76.10
26703;DHT22;14316;51.074;3.704;2023-06-26T11:55:23;30.40;81.00
26703;DHT22;14316;51.074;3.704;2023-06-26T11:57:50;31.00;79.20
26703;DHT22;14316;51.074;3.704;2023-06-26T12:00:17;30.50;79.90
26703;DHT22;14316;51.074;3.704;2023-06-26T12:02:44;30.00;75.40
26703;DHT22;14316;51.074;3.704;2023-06-26T12:05:11;30.00;79.00
26703;DHT22;14316;51.074;3.704;2023-06-26T12:07:38;29.90;72.20
26703;DHT22;14316;51.074;3.704;2023-06-26T12:10:05;28.20;77.10
26703;DHT22;14316;51.074;3.704;2023-06-26T12:12:32;27.30;77.30
26703;DHT22;14316;51.074;3.704;2023-06-26T12:14:58;27.80;74.30
26703;DHT22;14316;51.074;3.704;2023-06-26T12:17:25;29.10;70.30
26703;DHT22;14316;51.074;3.704;2023-06-26T12:19:51;30.50;68.80
26703;DHT22;14316;51.074;3.704;2023-06-26T12:22:18;31.70;67.00
26703;DHT22;14316;51.074;3.704;2023-06-26T12:24:46;32.20;65.10
26703;DHT22;14316;51.074;3.704;2023-06-26T12:27:14;32.70;64.10
26703;DHT22;14316;51.074;3.704;2023-06-26T12:29:45;31.80;65.20
26703;DHT22;14316;51.074;3.704;2023-06-26T12:32:12;31.90;69.90
26703;DHT22;14316;51.074;3.704;2023-06-26T12:34:39;33.50;63.80
26703;DHT22;14316;51.074;3.704;2023-06-26T12:37:08;34.50;69.70
26703;DHT22;14316;51.074;3.704;2023-06-26T12:39:53;34.50;65.30
26703;DHT22;14316;51.074;3.704;2023-06-26T12:44:46;33.10;58.70
26703;DHT22;14316;51.074;3.704;2023-06-26T12:47:13;32.70;69.80
26703;DHT22;14316;51.074;3.704;2023-06-26T12:49:41;33.00;60.70
26703;DHT22;14316;51.074;3.704;2023-06-26T12:52:12;34.20;65.70
26703;DHT22;14316;51.074;3.704;2023-06-26T12:54:40;36.30;64.70
26703;DHT22;14316;51.074;3.704;2023-06-26T12:57:06;37.30;55.00
26703;DHT22;14316;51.074;3.704;2023-06-26T12:59:33;35.90;61.70
26703;DHT22;14316;51.074;3.704;2023-06-26T13:01:59;35.40;59.20
26703;DHT22;14316;51.074;3.704;2023-06-26T13:04:26;33.60;55.20
26703;DHT22;14316;51.074;3.704;2023-06-26T13:06:52;33.60;56.10
26703;DHT22;14316;51.074;3.704;2023-06-26T13:09:21;32.80;54.70
26703;DHT22;14316;51.074;3.704;2023-06-26T13:11:47;32.10;58.90
26703;DHT22;14316;51.074;3.704;2023-06-26T13:14:14;32.10;60.50
26703;DHT22;14316;51.074;3.704;2023-06-26T13:16:40;32.80;54.30
26703;DHT22;14316;51.074;3.704;2023-06-26T13:19:06;34.20;52.60
26703;DHT22;14316;51.074;3.704;2023-06-26T13:21:33;35.30;54.20
26703;DHT22;14316;51.074;3.704;2023-06-26T13:23:59;35.00;49.80
26703;DHT22;14316;51.074;3.704;2023-06-26T13:26:26;34.20;52.30
26703;DHT22;14316;51.074;3.704;2023-06-26T13:28:54;33.10;52.90
26703;DHT22;14316;51.074;3.704;2023-06-26T13:31:20;32.70;52.10
26703;DHT22;14316;51.074;3.704;2023-06-26T13:33:46;33.30;51.40
26703;DHT22;14316;51.074;3.704;2023-06-26T13:36:15;34.70;53.60
26703;DHT22;14316;51.074;3.704;2023-06-26T13:38:41;36.10;54.10
26703;DHT22;14316;51.074;3.704;2023-06-26T13:41:07;36.20;48.20
26703;DHT22;14316;51.074;3.704;2023-06-26T13:43:32;35.40;51.70
26703;DHT22;14316;51.074;3.704;2023-06-26T13:45:58;34.50;49.80
26703;DHT22;14316;51.074;3.704;2023-06-26T13:48:24;35.90;49.50
26703;DHT22;14316;51.074;3.704;2023-06-26T13:50:50;38.20;50.60
26703;DHT22;14316;51.074;3.704;2023-06-26T13:53:16;38.40;46.50
26703;DHT22;14316;51.074;3.704;2023-06-26T13:55:42;36.90;46.60
26703;DHT22;14316;51.074;3.704;2023-06-26T13:58:08;35.60;46.60
26703;DHT22;14316;51.074;3.704;2023-06-26T14:00:35;34.60;48.80
26703;DHT22;14316;51.074;3.704;2023-06-26T14:03:02;33.80;47.00
26703;DHT22;14316;51.074;3.704;2023-06-26T14:05:29;33.90;46.30
26703;DHT22;14316;51.074;3.704;2023-06-26T14:07:55;34.80;49.10
26703;DHT22;14316;51.074;3.704;2023-06-26T14:10:22;34.80;50.10
26703;DHT22;14316;51.074;3.704;2023-06-26T14:12:48;34.80;57.00
26703;DHT22;14316;51.074;3.704;2023-06-26T14:15:14;35.50;49.80
26703;DHT22;14316;51.074;3.704;2023-06-26T14:17:40;35.30;52.50
26703;DHT22;14316;51.074;3.704;2023-06-26T14:20:07;35.90;53.90
26703;DHT22;14316;51.074;3.704;2023-06-26T14:22:42;36.30;56.10
26703;DHT22;14316;51.074;3.704;2023-06-26T14:25:10;36.30;57.80
26703;DHT22;14316;51.074;3.704;2023-06-26T14:27:37;36.80;52.80
26703;DHT22;14316;51.074;3.704;2023-06-26T14:30:04;37.70;54.80
26703;DHT22;14316;51.074;3.704;2023-06-26T14:32:30;36.90;48.10
26703;DHT22;14316;51.074;3.704;2023-06-26T14:34:56;35.60;50.70
26703;DHT22;14316;51.074;3.704;2023-06-26T14:37:22;35.00;54.70
26703;DHT22;14316;51.074;3.704;2023-06-26T14:39:48;35.60;56.30
26703;DHT22;14316;51.074;3.704;2023-06-26T14:42:13;36.10;54.60
26703;DHT22;14316;51.074;3.704;2023-06-26T14:44:39;36.10;57.10
26703;DHT22;14316;51.074;3.704;2023-06-26T14:47:05;36.30;54.50
26703;DHT22;14316;51.074;3.704;2023-06-26T14:49:31;36.40;53.10
26703;DHT22;14316;51.074;3.704;2023-06-26T14:51:57;35.70;50.10
26703;DHT22;14316;51.074;3.704;2023-06-26T14:54:22;34.10;50.20
26703;DHT22;14316;51.074;3.704;2023-06-26T14:56:48;32.70;52.30
26703;DHT22;14316;51.074;3.704;2023-06-26T14:59:14;31.90;56.10
26703;DHT22;14316;51.074;3.704;2023-06-26T15:01:40;31.80;59.30
26703;DHT22;14316;51.074;3.704;2023-06-26T15:04:06;32.00;56.60
26703;DHT22;14316;51.074;3.704;2023-06-26T15:06:32;32.10;59.80
26703;DHT22;14316;51.074;3.704;2023-06-26T15:08:59;32.20;52.20
26703;DHT22;14316;51.074;3.704;2023-06-26T15:11:25;32.20;55.00
26703;DHT22;14316;51.074;3.704;2023-06-26T15:13:51;33.40;54.30
26703;DHT22;14316;51.074;3.704;2023-06-26T15:16:19;33.50;51.20
26703;DHT22;14316;51.074;3.704;2023-06-26T15:18:45;33.50;55.50
26703;DHT22;14316;51.074;3.704;2023-06-26T15:21:11;33.90;51.80
26703;DHT22;14316;51.074;3.704;2023-06-26T15:23:37;32.60;51.00
26703;DHT22;14316;51.074;3.704;2023-06-26T15:26:04;31.50;52.10
26703;DHT22;14316;51.074;3.704;2023-06-26T15:28:30;30.50;56.90
26703;DHT22;14316;51.074;3.704;2023-06-26T15:30:56;30.30;57.40
26703;DHT22;14316;51.074;3.704;2023-06-26T15:33:22;30.50;61.50
26703;DHT22;14316;51.074;3.704;2023-06-26T15:35:47;30.60;61.10
26703;DHT22;14316;51.074;3.704;2023-06-26T15:38:13;30.50;60.90
26703;DHT22;14316;51.074;3.704;2023-06-26T15:40:39;30.20;60.10